sensor_id;sensor_type;location;lat;lon;timestamp;P1;durP1;ratioP1;P2;durP2;ratioP2
4577;SDS011;2301;47.354;8.528;2023-04-03T00:01:47;2.53;;;1.70;;
4577;SDS011;2301;47.354;8.528;2023-04-03T00:04:14;3.27;;;2.10;;
4577;SDS011;2301;47.354;8.528;2023-04-03T00:06:41;2.17;;;1.83;;
4577;SDS011;2301;47.354;8.528;2023-04-03T00:09:09;3.33;;;2.10;;
4577;SDS011;2301;47.354;8.528;2023-04-03T00:11:36;4.37;;;2.50;;
4577;SDS011;2301;47.354;8.528;2023-04-03T00:14:06;8.90;;;2.37;;
4577;SDS011;2301;47.354;8.528;2023-04-03T00:16:33;12.50;;;2.30;;
4577;SDS011;2301;47.354;8.528;2023-04-03T00:19:00;7.13;;;2.90;;
4577;SDS011;2301;47.354;8.528;2023-04-03T00:21:27;4.70;;;2.50;;
4577;SDS011;2301;47.354;8.528;2023-04-03T00:23:54;2.83;;;2.20;;
4577;SDS011;2301;47.354;8.528;2023-04-03T00:26:23;4.17;;;2.40;;
4577;SDS011;2301;47.354;8.528;2023-04-03T00:28:50;2.70;;;1.80;;
4577;SDS011;2301;47.354;8.528;2023-04-03T00:31:17;4.23;;;1.90;;
4577;SDS011;2301;47.354;8.528;2023-04-03T00:33:44;4.17;;;2.23;;
4577;SDS011;2301;47.354;8.528;2023-04-03T00:36:11;2.53;;;2.00;;
4577;SDS011;2301;47.354;8.528;2023-04-03T00:38:39;2.93;;;2.10;;
4577;SDS011;2301;47.354;8.528;2023-04-03T00:41:06;4.43;;;2.30;;
4577;SDS011;2301;47.354;8.528;2023-04-03T00:43:35;3.70;;;1.93;;
4577;SDS011;2301;47.354;8.528;2023-04-03T00:46:02;3.00;;;1.90;;
4577;SDS011;2301;47.354;8.528;2023-04-03T00:48:30;3.80;;;2.03;;
4577;SDS011;2301;47.354;8.528;2023-04-03T00:51:01;3.10;;;1.80;;
4577;SDS011;2301;47.354;8.528;2023-04-03T00:53:30;2.83;;;1.70;;
4577;SDS011;2301;47.354;8.528;2023-04-03T00:55:59;2.70;;;1.70;;
4577;SDS011;2301;47.354;8.528;2023-04-03T00:58:28;1.90;;;1.50;;
4577;SDS011;2301;47.354;8.528;2023-04-03T01:01:02;2.30;;;1.73;;
4577;SDS011;2301;47.354;8.528;2023-04-03T01:03:33;4.73;;;1.20;;
4577;SDS011;2301;47.354;8.528;2023-04-03T01:06:01;3.40;;;1.40;;
4577;SDS011;2301;47.354;8.528;2023-04-03T01:08:28;2.53;;;1.80;;
4577;SDS011;2301;47.354;8.528;2023-04-03T01:10:55;2.53;;;1.70;;
4577;SDS011;2301;47.354;8.528;2023-04-03T01:13:24;1.97;;;1.50;;
4577;SDS011;2301;47.354;8.528;2023-04-03T01:15:52;2.70;;;1.70;;
4577;SDS011;2301;47.354;8.528;2023-04-03T01:18:21;2.20;;;1.50;;
4577;SDS011;2301;47.354;8.528;2023-04-03T01:21:03;4.03;;;2.00;;
4577;SDS011;2301;47.354;8.528;2023-04-03T01:24:03;3.33;;;2.50;;
4577;SDS011;2301;47.354;8.528;2023-04-03T01:26:47;4.70;;;1.80;;
4577;SDS011;2301;47.354;8.528;2023-04-03T01:29:15;2.60;;;2.13;;
4577;SDS011;2301;47.354;8.528;2023-04-03T01:31:49;3.10;;;1.80;;
4577;SDS011;2301;47.354;8.528;2023-04-03T01:34:17;4.50;;;2.10;;
4577;SDS011;2301;47.354;8.528;2023-04-03T01:36:44;5.60;;;1.73;;
4577;SDS011;2301;47.354;8.528;2023-04-03T01:39:11;3.83;;;1.85;;
4577;SDS011;2301;47.354;8.528;2023-04-03T01:41:38;3.10;;;2.10;;
4577;SDS011;2301;47.354;8.528;2023-04-03T01:44:05;2.50;;;1.80;;
4577;SDS011;2301;47.354;8.528;2023-04-03T01:46:32;4.93;;;1.73;;
4577;SDS011;2301;47.354;8.528;2023-04-03T01:49:01;5.73;;;1.77;;
4577;SDS011;2301;47.354;8.528;2023-04-03T01:51:30;3.90;;;1.70;;
4577;SDS011;2301;47.354;8.528;2023-04-03T01:54:00;2.10;;;1.70;;
4577;SDS011;2301;47.354;8.528;2023-04-03T01:56:29;2.30;;;1.70;;
4577;SDS011;2301;47.354;8.528;2023-04-03T01:58:59;2.63;;;2.30;;
4577;SDS011;2301;47.354;8.528;2023-04-03T02:01:26;2.20;;;1.70;;
4577;SDS011;2301;47.354;8.528;2023-04-03T02:03:52;3.40;;;1.90;;
4577;SDS011;2301;47.354;8.528;2023-04-03T02:06:21;3.23;;;2.20;;
4577;SDS011;2301;47.354;8.528;2023-04-03T02:08:48;2.90;;;2.17;;
4577;SDS011;2301;47.354;8.528;2023-04-03T02:11:15;4.23;;;2.10;;
4577;SDS011;2301;47.354;8.528;2023-04-03T02:13:42;2.40;;;1.87;;
4577;SDS011;2301;47.354;8.528;2023-04-03T02:16:09;3.25;;;2.10;;
4577;SDS011;2301;47.354;8.528;2023-04-03T02:18:38;4.80;;;1.90;;
4577;SDS011;2301;47.354;8.528;2023-04-03T02:21:05;3.20;;;2.40;;
4577;SDS011;2301;47.354;8.528;2023-04-03T02:23:34;2.20;;;1.90;;
4577;SDS011;2301;47.354;8.528;2023-04-03T02:26:02;17.05;;;2.40;;
4577;SDS011;2301;47.354;8.528;2023-04-03T02:28:31;3.50;;;2.20;;
4577;SDS011;2301;47.354;8.528;2023-04-03T02:30:58;3.10;;;2.60;;
4577;SDS011;2301;47.354;8.528;2023-04-03T02:33:25;5.73;;;2.57;;
4577;SDS011;2301;47.354;8.528;2023-04-03T02:35:53;2.90;;;2.30;;
4577;SDS011;2301;47.354;8.528;2023-04-03T02:38:20;2.87;;;2.50;;
4577;SDS011;2301;47.354;8.528;2023-04-03T02:40:49;3.07;;;2.23;;
4577;SDS011;2301;47.354;8.528;2023-04-03T02:43:16;4.30;;;2.50;;
4577;SDS011;2301;47.354;8.528;2023-04-03T02:45:43;3.63;;;2.40;;
4577;SDS011;2301;47.354;8.528;2023-04-03T02:48:10;4.00;;;2.60;;
4577;SDS011;2301;47.354;8.528;2023-04-03T02:50:37;4.03;;;2.60;;
4577;SDS011;2301;47.354;8.528;2023-04-03T02:53:04;4.53;;;2.05;;
4577;SDS011;2301;47.354;8.528;2023-04-03T02:55:31;3.70;;;2.50;;
4577;SDS011;2301;47.354;8.528;2023-04-03T02:58:00;3.85;;;2.10;;
4577;SDS011;2301;47.354;8.528;2023-04-03T03:00:28;8.23;;;2.47;;
4577;SDS011;2301;47.354;8.528;2023-04-03T03:02:55;8.43;;;2.20;;
4577;SDS011;2301;47.354;8.528;2023-04-03T03:05:22;4.05;;;1.90;;
4577;SDS011;2301;47.354;8.528;2023-04-03T03:07:49;29.40;;;2.47;;
4577;SDS011;2301;47.354;8.528;2023-04-03T03:10:16;2.97;;;2.20;;
4577;SDS011;2301;47.354;8.528;2023-04-03T03:12:44;5.45;;;2.35;;
4577;SDS011;2301;47.354;8.528;2023-04-03T03:15:13;4.88;;;2.00;;
4577;SDS011;2301;47.354;8.528;2023-04-03T03:17:40;2.80;;;1.80;;
4577;SDS011;2301;47.354;8.528;2023-04-03T03:20:07;3.57;;;2.10;;
4577;SDS011;2301;47.354;8.528;2023-04-03T03:22:35;3.73;;;2.00;;
4577;SDS011;2301;47.354;8.528;2023-04-03T03:25:03;3.70;;;1.70;;
4577;SDS011;2301;47.354;8.528;2023-04-03T03:27:31;3.30;;;2.13;;
4577;SDS011;2301;47.354;8.528;2023-04-03T03:29:58;3.33;;;2.00;;
4577;SDS011;2301;47.354;8.528;2023-04-03T03:32:26;4.50;;;1.77;;
4577;SDS011;2301;47.354;8.528;2023-04-03T03:34:53;2.20;;;1.73;;
4577;SDS011;2301;47.354;8.528;2023-04-03T03:37:20;2.55;;;1.77;;
4577;SDS011;2301;47.354;8.528;2023-04-03T03:39:47;3.30;;;1.90;;
4577;SDS011;2301;47.354;8.528;2023-04-03T03:42:14;2.72;;;1.65;;
4577;SDS011;2301;47.354;8.528;2023-04-03T03:44:41;2.20;;;1.63;;
4577;SDS011;2301;47.354;8.528;2023-04-03T03:47:08;2.33;;;1.70;;
4577;SDS011;2301;47.354;8.528;2023-04-03T03:49:37;2.72;;;1.52;;
4577;SDS011;2301;47.354;8.528;2023-04-03T03:52:04;2.83;;;2.00;;
4577;SDS011;2301;47.354;8.528;2023-04-03T03:54:31;2.88;;;1.88;;
4577;SDS011;2301;47.354;8.528;2023-04-03T03:56:58;2.13;;;1.83;;
4577;SDS011;2301;47.354;8.528;2023-04-03T03:59:25;2.10;;;1.73;;
4577;SDS011;2301;47.354;8.528;2023-04-03T04:01:52;2.47;;;1.95;;
4577;SDS011;2301;47.354;8.528;2023-04-03T04:04:19;6.20;;;2.25;;
4577;SDS011;2301;47.354;8.528;2023-04-03T04:06:48;2.25;;;1.92;;
4577;SDS011;2301;47.354;8.528;2023-04-03T04:09:15;2.88;;;2.08;;
4577;SDS011;2301;47.354;8.528;2023-04-03T04:11:42;3.40;;;2.20;;
4577;SDS011;2301;47.354;8.528;2023-04-03T04:14:10;3.28;;;2.10;;
4577;SDS011;2301;47.354;8.528;2023-04-03T04:16:37;2.30;;;2.03;;
4577;SDS011;2301;47.354;8.528;2023-04-03T04:19:04;2.80;;;2.17;;
4577;SDS011;2301;47.354;8.528;2023-04-03T04:21:31;2.53;;;2.07;;
4577;SDS011;2301;47.354;8.528;2023-04-03T04:24:00;3.10;;;2.30;;
4577;SDS011;2301;47.354;8.528;2023-04-03T04:26:26;2.55;;;2.17;;
4577;SDS011;2301;47.354;8.528;2023-04-03T04:28:54;4.10;;;3.10;;
4577;SDS011;2301;47.354;8.528;2023-04-03T04:31:21;3.58;;;3.28;;
4577;SDS011;2301;47.354;8.528;2023-04-03T04:33:48;4.35;;;3.30;;
4577;SDS011;2301;47.354;8.528;2023-04-03T04:36:15;4.63;;;3.35;;
4577;SDS011;2301;47.354;8.528;2023-04-03T04:38:42;5.68;;;3.42;;
4577;SDS011;2301;47.354;8.528;2023-04-03T04:41:11;4.40;;;3.40;;
4577;SDS011;2301;47.354;8.528;2023-04-03T04:43:38;4.63;;;3.65;;
4577;SDS011;2301;47.354;8.528;2023-04-03T04:46:06;3.67;;;3.05;;
4577;SDS011;2301;47.354;8.528;2023-04-03T04:48:35;4.75;;;3.60;;
4577;SDS011;2301;47.354;8.528;2023-04-03T04:51:03;5.40;;;3.70;;
4577;SDS011;2301;47.354;8.528;2023-04-03T04:53:30;5.05;;;3.53;;
4577;SDS011;2301;47.354;8.528;2023-04-03T04:55:58;5.00;;;3.63;;
4577;SDS011;2301;47.354;8.528;2023-04-03T04:58:27;4.65;;;4.07;;
4577;SDS011;2301;47.354;8.528;2023-04-03T05:00:58;4.00;;;3.35;;
4577;SDS011;2301;47.354;8.528;2023-04-03T05:03:25;4.82;;;4.00;;
4577;SDS011;2301;47.354;8.528;2023-04-03T05:05:52;10.38;;;4.28;;
4577;SDS011;2301;47.354;8.528;2023-04-03T05:08:20;4.65;;;3.55;;
4577;SDS011;2301;47.354;8.528;2023-04-03T05:10:47;7.30;;;3.92;;
4577;SDS011;2301;47.354;8.528;2023-04-03T05:13:14;7.07;;;4.40;;
4577;SDS011;2301;47.354;8.528;2023-04-03T05:15:43;4.40;;;3.58;;
4577;SDS011;2301;47.354;8.528;2023-04-03T05:18:11;4.25;;;3.58;;
4577;SDS011;2301;47.354;8.528;2023-04-03T05:20:39;5.70;;;4.07;;
4577;SDS011;2301;47.354;8.528;2023-04-03T05:23:06;5.60;;;3.80;;
4577;SDS011;2301;47.354;8.528;2023-04-03T05:25:33;5.43;;;4.45;;
4577;SDS011;2301;47.354;8.528;2023-04-03T05:28:00;4.53;;;3.60;;
4577;SDS011;2301;47.354;8.528;2023-04-03T05:30:27;5.68;;;3.88;;
4577;SDS011;2301;47.354;8.528;2023-04-03T05:32:55;6.72;;;3.90;;
4577;SDS011;2301;47.354;8.528;2023-04-03T05:35:22;4.30;;;3.58;;
4577;SDS011;2301;47.354;8.528;2023-04-03T05:37:49;6.80;;;4.40;;
4577;SDS011;2301;47.354;8.528;2023-04-03T05:40:16;5.00;;;3.90;;
4577;SDS011;2301;47.354;8.528;2023-04-03T05:42:43;5.35;;;4.00;;
4577;SDS011;2301;47.354;8.528;2023-04-03T05:45:10;5.28;;;4.22;;
4577;SDS011;2301;47.354;8.528;2023-04-03T05:47:37;4.72;;;4.13;;
4577;SDS011;2301;47.354;8.528;2023-04-03T05:50:06;4.38;;;3.88;;
4577;SDS011;2301;47.354;8.528;2023-04-03T05:52:35;4.45;;;3.78;;
4577;SDS011;2301;47.354;8.528;2023-04-03T05:55:04;6.70;;;3.40;;
4577;SDS011;2301;47.354;8.528;2023-04-03T05:57:31;4.45;;;3.30;;
4577;SDS011;2301;47.354;8.528;2023-04-03T05:59:58;6.05;;;3.80;;
4577;SDS011;2301;47.354;8.528;2023-04-03T06:02:25;5.18;;;3.22;;
4577;SDS011;2301;47.354;8.528;2023-04-03T06:04:52;5.20;;;3.78;;
4577;SDS011;2301;47.354;8.528;2023-04-03T06:07:22;5.60;;;3.60;;
4577;SDS011;2301;47.354;8.528;2023-04-03T06:09:54;5.38;;;3.53;;
4577;SDS011;2301;47.354;8.528;2023-04-03T06:12:22;5.07;;;3.55;;
4577;SDS011;2301;47.354;8.528;2023-04-03T06:14:49;5.70;;;3.00;;
4577;SDS011;2301;47.354;8.528;2023-04-03T06:17:17;4.90;;;3.80;;
4577;SDS011;2301;47.354;8.528;2023-04-03T06:19:44;5.05;;;3.65;;
4577;SDS011;2301;47.354;8.528;2023-04-03T06:22:11;4.70;;;3.47;;
4577;SDS011;2301;47.354;8.528;2023-04-03T06:24:41;4.18;;;3.15;;
4577;SDS011;2301;47.354;8.528;2023-04-03T06:27:09;4.93;;;3.40;;
4577;SDS011;2301;47.354;8.528;2023-04-03T06:29:37;5.10;;;4.18;;
4577;SDS011;2301;47.354;8.528;2023-04-03T06:32:04;13.95;;;2.80;;
4577;SDS011;2301;47.354;8.528;2023-04-03T06:34:31;6.57;;;4.45;;
4577;SDS011;2301;47.354;8.528;2023-04-03T06:37:02;6.22;;;3.60;;
4577;SDS011;2301;47.354;8.528;2023-04-03T06:39:29;4.75;;;3.50;;
4577;SDS011;2301;47.354;8.528;2023-04-03T06:41:58;4.70;;;3.55;;
4577;SDS011;2301;47.354;8.528;2023-04-03T06:44:25;6.15;;;3.22;;
4577;SDS011;2301;47.354;8.528;2023-04-03T06:46:52;5.00;;;3.55;;
4577;SDS011;2301;47.354;8.528;2023-04-03T06:49:19;4.90;;;3.10;;
4577;SDS011;2301;47.354;8.528;2023-04-03T06:51:46;5.50;;;3.35;;
4577;SDS011;2301;47.354;8.528;2023-04-03T06:54:13;6.47;;;3.75;;
4577;SDS011;2301;47.354;8.528;2023-04-03T06:56:41;5.20;;;3.53;;
4577;SDS011;2301;47.354;8.528;2023-04-03T06:59:10;4.45;;;3.08;;
4577;SDS011;2301;47.354;8.528;2023-04-03T07:01:39;5.50;;;3.40;;
4577;SDS011;2301;47.354;8.528;2023-04-03T07:04:06;5.22;;;3.55;;
4577;SDS011;2301;47.354;8.528;2023-04-03T07:06:34;5.88;;;3.20;;
4577;SDS011;2301;47.354;8.528;2023-04-03T07:09:02;4.38;;;3.20;;
4577;SDS011;2301;47.354;8.528;2023-04-03T07:11:29;6.72;;;3.80;;
4577;SDS011;2301;47.354;8.528;2023-04-03T07:13:57;4.30;;;3.05;;
4577;SDS011;2301;47.354;8.528;2023-04-03T07:16:25;5.88;;;3.35;;
4577;SDS011;2301;47.354;8.528;2023-04-03T07:18:52;4.22;;;3.33;;
4577;SDS011;2301;47.354;8.528;2023-04-03T07:21:19;3.42;;;2.80;;
4577;SDS011;2301;47.354;8.528;2023-04-03T07:23:46;5.13;;;3.50;;
4577;SDS011;2301;47.354;8.528;2023-04-03T07:26:13;4.38;;;2.80;;
4577;SDS011;2301;47.354;8.528;2023-04-03T07:28:40;3.58;;;2.80;;
4577;SDS011;2301;47.354;8.528;2023-04-03T07:31:15;5.55;;;2.90;;
4577;SDS011;2301;47.354;8.528;2023-04-03T07:33:47;3.65;;;2.70;;
4577;SDS011;2301;47.354;8.528;2023-04-03T07:36:15;4.10;;;3.10;;
4577;SDS011;2301;47.354;8.528;2023-04-03T07:38:43;4.28;;;3.00;;
4577;SDS011;2301;47.354;8.528;2023-04-03T07:41:11;4.32;;;3.15;;
4577;SDS011;2301;47.354;8.528;2023-04-03T07:43:40;4.60;;;2.85;;
4577;SDS011;2301;47.354;8.528;2023-04-03T07:46:07;4.28;;;3.05;;
4577;SDS011;2301;47.354;8.528;2023-04-03T07:48:35;2.80;;;2.40;;
4577;SDS011;2301;47.354;8.528;2023-04-03T07:51:07;3.90;;;2.90;;
4577;SDS011;2301;47.354;8.528;2023-04-03T07:53:33;9.07;;;2.50;;
4577;SDS011;2301;47.354;8.528;2023-04-03T07:56:00;9.88;;;3.13;;
4577;SDS011;2301;47.354;8.528;2023-04-03T07:58:28;5.38;;;2.70;;
4577;SDS011;2301;47.354;8.528;2023-04-03T08:00:55;4.32;;;2.60;;
4577;SDS011;2301;47.354;8.528;2023-04-03T08:03:22;14.82;;;3.50;;
4577;SDS011;2301;47.354;8.528;2023-04-03T08:05:49;9.48;;;3.50;;
4577;SDS011;2301;47.354;8.528;2023-04-03T08:08:18;7.72;;;3.25;;
4577;SDS011;2301;47.354;8.528;2023-04-03T08:10:48;6.38;;;3.55;;
4577;SDS011;2301;47.354;8.528;2023-04-03T08:13:15;8.60;;;3.80;;
4577;SDS011;2301;47.354;8.528;2023-04-03T08:15:42;4.20;;;2.63;;
4577;SDS011;2301;47.354;8.528;2023-04-03T08:18:10;3.70;;;2.65;;
4577;SDS011;2301;47.354;8.528;2023-04-03T08:20:37;13.52;;;4.05;;
4577;SDS011;2301;47.354;8.528;2023-04-03T08:23:05;7.90;;;3.90;;
4577;SDS011;2301;47.354;8.528;2023-04-03T08:25:39;5.55;;;2.60;;
4577;SDS011;2301;47.354;8.528;2023-04-03T08:28:06;4.78;;;3.25;;
4577;SDS011;2301;47.354;8.528;2023-04-03T08:30:34;7.47;;;3.20;;
4577;SDS011;2301;47.354;8.528;2023-04-03T08:33:01;4.45;;;2.53;;
4577;SDS011;2301;47.354;8.528;2023-04-03T08:35:28;5.82;;;2.65;;
4577;SDS011;2301;47.354;8.528;2023-04-03T08:37:55;5.20;;;3.10;;
4577;SDS011;2301;47.354;8.528;2023-04-03T08:40:22;3.92;;;2.85;;
4577;SDS011;2301;47.354;8.528;2023-04-03T08:42:54;9.32;;;3.42;;
4577;SDS011;2301;47.354;8.528;2023-04-03T08:45:33;5.93;;;3.25;;
4577;SDS011;2301;47.354;8.528;2023-04-03T08:48:11;3.85;;;2.80;;
4577;SDS011;2301;47.354;8.528;2023-04-03T08:50:42;3.90;;;2.40;;
4577;SDS011;2301;47.354;8.528;2023-04-03T08:53:14;5.07;;;2.90;;
4577;SDS011;2301;47.354;8.528;2023-04-03T08:55:44;6.00;;;2.80;;
4577;SDS011;2301;47.354;8.528;2023-04-03T08:58:14;4.70;;;2.60;;
4577;SDS011;2301;47.354;8.528;2023-04-03T09:00:44;3.65;;;2.60;;
4577;SDS011;2301;47.354;8.528;2023-04-03T09:03:15;5.20;;;2.70;;
4577;SDS011;2301;47.354;8.528;2023-04-03T09:05:46;5.57;;;2.72;;
4577;SDS011;2301;47.354;8.528;2023-04-03T09:08:22;3.47;;;2.60;;
4577;SDS011;2301;47.354;8.528;2023-04-03T09:10:52;3.67;;;2.67;;
4577;SDS011;2301;47.354;8.528;2023-04-03T09:13:34;6.35;;;3.30;;
4577;SDS011;2301;47.354;8.528;2023-04-03T09:16:12;4.05;;;2.80;;
4577;SDS011;2301;47.354;8.528;2023-04-03T09:18:48;3.85;;;2.60;;
4577;SDS011;2301;47.354;8.528;2023-04-03T09:21:20;3.35;;;2.50;;
4577;SDS011;2301;47.354;8.528;2023-04-03T09:23:52;4.18;;;3.15;;
4577;SDS011;2301;47.354;8.528;2023-04-03T09:26:23;4.35;;;2.55;;
4577;SDS011;2301;47.354;8.528;2023-04-03T09:28:57;4.75;;;2.78;;
4577;SDS011;2301;47.354;8.528;2023-04-03T09:31:29;3.63;;;2.60;;
4577;SDS011;2301;47.354;8.528;2023-04-03T09:34:02;3.75;;;2.95;;
4577;SDS011;2301;47.354;8.528;2023-04-03T09:36:40;5.72;;;2.70;;
4577;SDS011;2301;47.354;8.528;2023-04-03T09:39:10;3.55;;;2.85;;
4577;SDS011;2301;47.354;8.528;2023-04-03T09:41:39;4.63;;;2.55;;
4577;SDS011;2301;47.354;8.528;2023-04-03T09:44:19;4.47;;;2.72;;
4577;SDS011;2301;47.354;8.528;2023-04-03T09:46:48;3.75;;;2.00;;
4577;SDS011;2301;47.354;8.528;2023-04-03T09:49:15;3.25;;;2.70;;
4577;SDS011;2301;47.354;8.528;2023-04-03T09:51:44;3.70;;;2.70;;
4577;SDS011;2301;47.354;8.528;2023-04-03T09:57:04;4.80;;;2.75;;
4577;SDS011;2301;47.354;8.528;2023-04-03T09:59:35;4.03;;;2.90;;
4577;SDS011;2301;47.354;8.528;2023-04-03T10:02:18;4.30;;;2.60;;
4577;SDS011;2301;47.354;8.528;2023-04-03T10:04:50;9.13;;;2.80;;
4577;SDS011;2301;47.354;8.528;2023-04-03T10:07:28;4.35;;;2.50;;
4577;SDS011;2301;47.354;8.528;2023-04-03T10:09:57;3.60;;;2.35;;
4577;SDS011;2301;47.354;8.528;2023-04-03T10:12:26;4.43;;;2.78;;
4577;SDS011;2301;47.354;8.528;2023-04-03T10:14:55;4.00;;;2.78;;
4577;SDS011;2301;47.354;8.528;2023-04-03T10:17:26;3.72;;;2.75;;
4577;SDS011;2301;47.354;8.528;2023-04-03T10:20:06;3.17;;;2.75;;
4577;SDS011;2301;47.354;8.528;2023-04-03T10:22:40;3.83;;;2.72;;
4577;SDS011;2301;47.354;8.528;2023-04-03T10:25:15;3.58;;;2.72;;
4577;SDS011;2301;47.354;8.528;2023-04-03T10:27:49;3.20;;;2.70;;
4577;SDS011;2301;47.354;8.528;2023-04-03T10:30:34;3.45;;;2.40;;
4577;SDS011;2301;47.354;8.528;2023-04-03T10:33:14;4.10;;;2.97;;
4577;SDS011;2301;47.354;8.528;2023-04-03T10:35:53;4.88;;;2.65;;
4577;SDS011;2301;47.354;8.528;2023-04-03T10:38:32;5.97;;;2.88;;
4577;SDS011;2301;47.354;8.528;2023-04-03T10:41:02;3.55;;;2.25;;
4577;SDS011;2301;47.354;8.528;2023-04-03T10:43:36;4.30;;;2.90;;
4577;SDS011;2301;47.354;8.528;2023-04-03T10:46:09;4.38;;;2.80;;
4577;SDS011;2301;47.354;8.528;2023-04-03T10:48:47;4.45;;;3.05;;
4577;SDS011;2301;47.354;8.528;2023-04-03T10:51:25;4.05;;;2.78;;
4577;SDS011;2301;47.354;8.528;2023-04-03T10:54:00;3.58;;;2.72;;
4577;SDS011;2301;47.354;8.528;2023-04-03T10:56:35;4.28;;;3.15;;
4577;SDS011;2301;47.354;8.528;2023-04-03T10:59:08;4.43;;;3.00;;
4577;SDS011;2301;47.354;8.528;2023-04-03T11:01:47;4.60;;;2.80;;
4577;SDS011;2301;47.354;8.528;2023-04-03T11:04:18;3.88;;;2.65;;
4577;SDS011;2301;47.354;8.528;2023-04-03T11:06:47;4.57;;;2.72;;
4577;SDS011;2301;47.354;8.528;2023-04-03T11:09:19;2.97;;;2.50;;
4577;SDS011;2301;47.354;8.528;2023-04-03T11:11:51;3.05;;;2.40;;
4577;SDS011;2301;47.354;8.528;2023-04-03T11:14:24;4.05;;;3.10;;
4577;SDS011;2301;47.354;8.528;2023-04-03T11:16:59;4.78;;;3.15;;
4577;SDS011;2301;47.354;8.528;2023-04-03T11:19:39;3.88;;;2.70;;
4577;SDS011;2301;47.354;8.528;2023-04-03T11:22:13;3.90;;;2.70;;
4577;SDS011;2301;47.354;8.528;2023-04-03T11:24:46;4.18;;;2.60;;
4577;SDS011;2301;47.354;8.528;2023-04-03T11:27:23;4.75;;;2.63;;
4577;SDS011;2301;47.354;8.528;2023-04-03T11:29:52;4.53;;;2.58;;
4577;SDS011;2301;47.354;8.528;2023-04-03T11:32:36;3.97;;;2.60;;
4577;SDS011;2301;47.354;8.528;2023-04-03T11:35:25;3.95;;;2.90;;
4577;SDS011;2301;47.354;8.528;2023-04-03T11:37:53;4.43;;;2.60;;
4577;SDS011;2301;47.354;8.528;2023-04-03T11:40:22;4.47;;;2.65;;
4577;SDS011;2301;47.354;8.528;2023-04-03T11:42:52;3.40;;;2.80;;
4577;SDS011;2301;47.354;8.528;2023-04-03T11:45:33;5.05;;;2.70;;
4577;SDS011;2301;47.354;8.528;2023-04-03T11:48:04;12.88;;;3.30;;
4577;SDS011;2301;47.354;8.528;2023-04-03T11:50:39;5.10;;;3.05;;
4577;SDS011;2301;47.354;8.528;2023-04-03T11:56:04;4.88;;;2.63;;
4577;SDS011;2301;47.354;8.528;2023-04-03T11:59:15;3.75;;;2.60;;
4577;SDS011;2301;47.354;8.528;2023-04-03T12:01:48;6.28;;;2.63;;
4577;SDS011;2301;47.354;8.528;2023-04-03T12:04:18;3.17;;;2.63;;
4577;SDS011;2301;47.354;8.528;2023-04-03T12:06:50;8.35;;;2.97;;
4577;SDS011;2301;47.354;8.528;2023-04-03T12:09:31;7.43;;;3.20;;
4577;SDS011;2301;47.354;8.528;2023-04-03T12:12:20;5.70;;;2.63;;
4577;SDS011;2301;47.354;8.528;2023-04-03T12:17:47;5.95;;;3.35;;
4577;SDS011;2301;47.354;8.528;2023-04-03T12:23:29;4.20;;;3.10;;
4577;SDS011;2301;47.354;8.528;2023-04-03T12:26:05;11.75;;;4.15;;
4577;SDS011;2301;47.354;8.528;2023-04-03T12:28:46;6.88;;;3.25;;
4577;SDS011;2301;47.354;8.528;2023-04-03T12:31:15;6.07;;;4.18;;
4577;SDS011;2301;47.354;8.528;2023-04-03T12:33:48;4.88;;;2.72;;
4577;SDS011;2301;47.354;8.528;2023-04-03T12:36:53;4.07;;;2.80;;
4577;SDS011;2301;47.354;8.528;2023-04-03T12:39:35;3.10;;;2.55;;
4577;SDS011;2301;47.354;8.528;2023-04-03T12:42:31;3.45;;;2.72;;
4577;SDS011;2301;47.354;8.528;2023-04-03T12:45:09;4.97;;;3.05;;
4577;SDS011;2301;47.354;8.528;2023-04-03T12:47:43;4.95;;;2.67;;
4577;SDS011;2301;47.354;8.528;2023-04-03T12:50:19;5.45;;;3.00;;
4577;SDS011;2301;47.354;8.528;2023-04-03T12:52:51;4.10;;;3.00;;
4577;SDS011;2301;47.354;8.528;2023-04-03T12:55:25;3.25;;;2.85;;
4577;SDS011;2301;47.354;8.528;2023-04-03T12:57:52;3.35;;;2.47;;
4577;SDS011;2301;47.354;8.528;2023-04-03T13:00:27;5.07;;;2.50;;
4577;SDS011;2301;47.354;8.528;2023-04-03T13:02:57;3.40;;;2.55;;
4577;SDS011;2301;47.354;8.528;2023-04-03T13:05:25;3.20;;;2.60;;
4577;SDS011;2301;47.354;8.528;2023-04-03T13:07:54;6.85;;;2.60;;
4577;SDS011;2301;47.354;8.528;2023-04-03T13:10:25;3.60;;;2.60;;
4577;SDS011;2301;47.354;8.528;2023-04-03T13:12:53;4.65;;;2.75;;
4577;SDS011;2301;47.354;8.528;2023-04-03T13:15:23;5.05;;;2.88;;
4577;SDS011;2301;47.354;8.528;2023-04-03T13:17:51;5.05;;;3.00;;
4577;SDS011;2301;47.354;8.528;2023-04-03T13:20:21;4.53;;;2.92;;
4577;SDS011;2301;47.354;8.528;2023-04-03T13:22:51;3.72;;;2.40;;
4577;SDS011;2301;47.354;8.528;2023-04-03T13:25:23;4.43;;;2.50;;
4577;SDS011;2301;47.354;8.528;2023-04-03T13:27:52;4.30;;;2.80;;
4577;SDS011;2301;47.354;8.528;2023-04-03T13:30:21;3.40;;;2.55;;
4577;SDS011;2301;47.354;8.528;2023-04-03T13:32:51;5.05;;;2.10;;
4577;SDS011;2301;47.354;8.528;2023-04-03T13:35:26;5.88;;;2.50;;
4577;SDS011;2301;47.354;8.528;2023-04-03T13:37:59;3.40;;;2.50;;
4577;SDS011;2301;47.354;8.528;2023-04-03T13:40:27;3.05;;;2.20;;
4577;SDS011;2301;47.354;8.528;2023-04-03T13:43:01;4.35;;;2.42;;
4577;SDS011;2301;47.354;8.528;2023-04-03T13:45:30;4.03;;;2.50;;
4577;SDS011;2301;47.354;8.528;2023-04-03T13:48:10;4.05;;;2.40;;
4577;SDS011;2301;47.354;8.528;2023-04-03T13:50:51;2.95;;;2.30;;
4577;SDS011;2301;47.354;8.528;2023-04-03T13:53:22;4.15;;;2.50;;
4577;SDS011;2301;47.354;8.528;2023-04-03T13:55:55;4.63;;;2.78;;
4577;SDS011;2301;47.354;8.528;2023-04-03T13:58:24;3.03;;;2.63;;
4577;SDS011;2301;47.354;8.528;2023-04-03T14:00:55;3.38;;;2.40;;
4577;SDS011;2301;47.354;8.528;2023-04-03T14:03:39;3.33;;;2.50;;
4577;SDS011;2301;47.354;8.528;2023-04-03T14:06:13;3.33;;;2.55;;
4577;SDS011;2301;47.354;8.528;2023-04-03T14:08:43;9.48;;;2.63;;
4577;SDS011;2301;47.354;8.528;2023-04-03T14:11:14;4.85;;;3.10;;
4577;SDS011;2301;47.354;8.528;2023-04-03T14:13:42;4.88;;;2.55;;
4577;SDS011;2301;47.354;8.528;2023-04-03T14:16:12;3.60;;;2.90;;
4577;SDS011;2301;47.354;8.528;2023-04-03T14:18:41;4.22;;;2.75;;
4577;SDS011;2301;47.354;8.528;2023-04-03T14:21:09;3.90;;;2.85;;
4577;SDS011;2301;47.354;8.528;2023-04-03T14:23:37;4.32;;;2.78;;
4577;SDS011;2301;47.354;8.528;2023-04-03T14:26:08;6.00;;;2.88;;
4577;SDS011;2301;47.354;8.528;2023-04-03T14:28:37;4.70;;;2.95;;
4577;SDS011;2301;47.354;8.528;2023-04-03T14:31:06;6.38;;;2.90;;
4577;SDS011;2301;47.354;8.528;2023-04-03T14:33:33;6.68;;;2.35;;
4577;SDS011;2301;47.354;8.528;2023-04-03T14:36:00;2.63;;;2.10;;
4577;SDS011;2301;47.354;8.528;2023-04-03T14:38:29;4.05;;;2.53;;
4577;SDS011;2301;47.354;8.528;2023-04-03T14:40:57;12.85;;;2.97;;
4577;SDS011;2301;47.354;8.528;2023-04-03T14:43:26;4.88;;;2.45;;
4577;SDS011;2301;47.354;8.528;2023-04-03T14:45:53;5.38;;;2.72;;
4577;SDS011;2301;47.354;8.528;2023-04-03T14:48:21;3.90;;;2.40;;
4577;SDS011;2301;47.354;8.528;2023-04-03T14:50:50;3.45;;;2.45;;
4577;SDS011;2301;47.354;8.528;2023-04-03T14:53:18;5.60;;;2.60;;
4577;SDS011;2301;47.354;8.528;2023-04-03T14:55:50;4.50;;;2.92;;
4577;SDS011;2301;47.354;8.528;2023-04-03T14:58:18;5.47;;;3.05;;
4577;SDS011;2301;47.354;8.528;2023-04-03T15:00:50;3.10;;;2.30;;
4577;SDS011;2301;47.354;8.528;2023-04-03T15:03:17;2.90;;;2.35;;
4577;SDS011;2301;47.354;8.528;2023-04-03T15:05:46;3.40;;;2.35;;
4577;SDS011;2301;47.354;8.528;2023-04-03T15:08:19;3.65;;;2.45;;
4577;SDS011;2301;47.354;8.528;2023-04-03T15:10:49;8.45;;;2.88;;
4577;SDS011;2301;47.354;8.528;2023-04-03T15:13:18;6.60;;;2.63;;
4577;SDS011;2301;47.354;8.528;2023-04-03T15:15:45;4.53;;;2.58;;
4577;SDS011;2301;47.354;8.528;2023-04-03T15:18:15;3.70;;;2.47;;
4577;SDS011;2301;47.354;8.528;2023-04-03T15:20:44;3.60;;;2.42;;
4577;SDS011;2301;47.354;8.528;2023-04-03T15:23:13;3.65;;;2.30;;
4577;SDS011;2301;47.354;8.528;2023-04-03T15:25:41;5.88;;;3.03;;
4577;SDS011;2301;47.354;8.528;2023-04-03T15:28:09;6.90;;;3.20;;
4577;SDS011;2301;47.354;8.528;2023-04-03T15:30:46;2.90;;;2.00;;
4577;SDS011;2301;47.354;8.528;2023-04-03T15:33:13;5.68;;;2.40;;
4577;SDS011;2301;47.354;8.528;2023-04-03T15:35:41;4.18;;;2.47;;
4577;SDS011;2301;47.354;8.528;2023-04-03T15:38:09;4.45;;;2.20;;
4577;SDS011;2301;47.354;8.528;2023-04-03T15:40:36;4.95;;;2.90;;
4577;SDS011;2301;47.354;8.528;2023-04-03T15:43:04;7.18;;;2.83;;
4577;SDS011;2301;47.354;8.528;2023-04-03T15:45:32;5.05;;;2.47;;